Accueil
METAR-TAF:

METAR-TAF

Aéroports :

North Kingstown, Rhode Island, États-Unis

latitude: 41-36N, longitude: 071-25W, altitude: 6 m

Observation

Le bulletin a été fait il y a 1 heure et 6 minutes, à 16:50 UTC
Vent 20 kt de nord-ouest avec des rafales jusqu'à 28 kt
Température 10°C
Humidité 37%
Pression 989 hPa
Visibilité: 16.1 km
Quelques nuages à une hauteur de 3000 ft
Nuages fragmentés à une hauteur de 5500 ft

METAR: KOQU 101650Z 31020G28KT 10SM FEW030 BKN055 10/M04 A2921 RMK VIRGA ALQDS

Heure: 13:56 (17:56 UTC)


TAF: absent

Observations et prévisions météorologiques de plus de 4000 aéroports (messages METAR et TAF).

Les stations disponibles sont représentées par des disques jaunes et rouges sur la carte.

Passer la souris dessus pour voir le nom de la station.

Cliquer dessus pour voir les observations et prévisions météorologiques.

Pour changer de carte: cliquez sur les boutons verts avec une croix noire pour zoomer, sur le bouton vert avec un tiret pour effectuer un zoom arrière, ou sur les flèches vertes pour les cartes adjacentes.


METAR-TAF: